メインページ
METAR-TAF:

METAR-TAF

空港 :

秋田, 日本

秋田空港

緯度: 39-37N, 経度: 140-13E, 海抜: 93m

現時点の気象観測

当レポートは59分前の23:00(UTC)に作成
変向風 2kt
気温 -5°C
湿度 93%
気圧 1020 hPa
視程: 6000m
高度800ftの雲はほとんどない
高度1500ftの雲は散在している
高度3000ftの千切れ雲あり
弱いにわか雪

METAR: RJSK 182300Z VRB02KT 6000 -SHSN FEW008 SCT015 BKN030 M05/M06 Q1020

時間: 08:59 (23:59 UTC)

予報

当レポートは52分前の23:07(UTC)に作成
予報は19日の 00時(UTC)から 20日の 06時(UTC)まで有効
西/北西の風 10kt
視程10km以上
高度1000ftの雲はほとんどない
高度2000ftの雲は散在している
高度3000ftの千切れ雲あり
弱いにわか雪
19日の 00時(UTC)から 19日の 06時(UTC)まで一時的に
視程: 3000m
弱いにわか雪
19日の 10時(UTC)から 19日の 12時(UTC)まで徐々に
南東の風 4kt
19日の 12時(UTC)から 19日の 18時(UTC)まで一時的に
視程: 0700m
高度100ftの雲はほとんどない
高度300ftの千切れ雲あり
高度800ftの千切れ雲あり
にわか雪
19日の 15時(UTC)から 19日の 18時(UTC)まで徐々に
西/北西の風 5kt
19日の 18時(UTC)から 20日の 00時(UTC)まで一時的に
視程: 3000m
弱いにわか雪

TAF: RJSK 182307Z 1900/2006 29010KT 9999 -SHSN FEW010 SCT020 BKN030 TEMPO 1900/1906 3000 -SHSN BECMG 1910/1912 13004KT TEMPO 1912/1918 0700 SHSN FEW001 BKN003 BKN008 BECMG 1915/1918 29005KT TEMPO 1918/2000 3000 -SHSN

4,000以上の空港の気象観測と天気予報(METAR報とTAF報)

利用可能な観測所は地図上に黄色い丸と赤い丸で示す。

丸の上にカーソルを重ねると観測所名を参照できる。

次にクリックすると気象観測と天気予報を参照できる。

マップの切り替え:黒色「×」印の緑ボタンをクリックして拡大、「-」印の緑ボタンをクリックして縮小、緑色の三角印をクリックして隣りの地図に切り替え


METAR-TAF: